Time;durP1;ratioP1;P1;durP2;ratioP2;P2;SDS_P1;SDS_P2;PMS_P1;PMS_P2;Temp;Humidity;BMP_temperature;BMP_pressure;BME280_temperature;BME280_humidity;BME280_pressure;Samples;Min_cycle;Max_cycle;Signal;HPM_P1;HPM_P2
2022/08/23 00:01:26;;;;;;;7.67;5.12;;;;;;;16.67;100.00;97639.22;1740867;81;21034;-90
2022/08/23 00:03:54;;;;;;;11.15;5.10;;;;;;;16.67;100.00;97640.58;1739985;81;21311;-90
2022/08/23 00:06:21;;;;;;;11.28;6.33;;;;;;;16.68;100.00;97642.98;1746246;81;20998;-88
2022/08/23 00:08:47;;;;;;;7.10;5.97;;;;;;;16.68;100.00;97633.98;1743640;81;20934;-88
2022/08/23 00:11:30;;;;;;;6.45;5.00;;;;;;;16.69;100.00;97628.77;1739838;81;21045;-87
2022/08/23 00:13:56;;;;;;;7.95;5.17;;;;;;;16.73;100.00;97626.41;1752070;81;21073;-90
2022/08/23 00:16:22;;;;;;;9.70;5.80;;;;;;;16.74;100.00;97636.20;1758392;81;20991;-89
2022/08/23 00:18:48;;;;;;;10.72;5.83;;;;;;;16.74;100.00;97638.95;1726151;81;20972;-90
2022/08/23 00:21:14;;;;;;;8.23;5.45;;;;;;;16.76;100.00;97650.39;1685582;83;20988;-88
2022/08/23 00:23:40;;;;;;;14.50;8.28;;;;;;;16.80;100.00;97655.99;1698688;83;21170;-88
2022/08/23 00:26:06;;;;;;;12.75;6.85;;;;;;;16.82;100.00;97661.36;1709241;83;21609;-88
2022/08/23 00:28:32;;;;;;;8.90;5.37;;;;;;;16.85;100.00;97659.36;1697853;82;21114;-88
2022/08/23 00:30:58;;;;;;;13.10;6.33;;;;;;;16.86;100.00;97659.59;1710697;81;20868;-87
2022/08/23 00:33:24;;;;;;;8.08;5.22;;;;;;;16.87;100.00;97662.56;1738732;81;20975;-90
2022/08/23 00:35:50;;;;;;;7.25;5.22;;;;;;;16.87;100.00;97659.02;1740687;82;21006;-89
2022/08/23 00:38:17;;;;;;;6.40;5.35;;;;;;;16.88;100.00;97667.46;1743337;80;20989;-87
2022/08/23 00:40:52;;;;;;;11.57;5.83;;;;;;;16.85;100.00;97673.04;1766045;80;21723;-90
2022/08/23 00:49:28;;;;;;;8.03;5.50;;;;;;;16.81;100.00;97665.23;1741878;80;20956;-87
2022/08/23 00:52:11;;;;;;;8.10;5.50;;;;;;;16.81;100.00;97663.06;1742162;81;20995;-87
2022/08/23 00:54:38;;;;;;;8.73;5.60;;;;;;;16.84;100.00;97672.00;1743518;81;21115;-88
2022/08/23 00:57:07;;;;;;;8.60;6.05;;;;;;;16.84;100.00;97670.64;1732947;82;20975;-90
2022/08/23 00:59:33;;;;;;;6.25;5.33;;;;;;;16.80;100.00;97673.20;1757545;79;20982;-90
2022/08/23 01:01:59;;;;;;;12.03;4.92;;;;;;;16.81;100.00;97671.27;1757815;81;21000;-87
2022/08/23 01:04:27;;;;;;;9.35;6.10;;;;;;;16.81;100.00;97672.08;1762831;81;21624;-89
2022/08/23 01:07:10;;;;;;;9.03;5.37;;;;;;;16.81;100.00;97670.70;1760609;81;20984;-88
2022/08/23 01:09:37;;;;;;;10.98;5.30;;;;;;;16.81;100.00;97672.64;1738365;81;20950;-89
2022/08/23 01:12:07;;;;;;;10.82;4.70;;;;;;;16.79;100.00;97672.17;1739523;81;21021;-87
2022/08/23 01:14:39;;;;;;;9.95;6.08;;;;;;;16.76;100.00;97665.44;1767327;79;21960;-88
2022/08/23 01:17:18;;;;;;;7.22;5.20;;;;;;;16.75;100.00;97665.20;1766172;81;20962;-90
2022/08/23 01:19:57;;;;;;;10.18;5.10;;;;;;;16.75;100.00;97672.58;1744807;81;21672;-88
2022/08/23 01:22:36;;;;;;;;;;;;;;;16.76;100.00;97670.91;1744110;81;21025;-90
2022/08/23 01:25:04;;;;;;;10.93;5.65;;;;;;;16.72;100.00;97674.05;1766662;80;20416;-90
2022/08/23 01:27:30;;;;;;;10.38;6.47;;;;;;;16.72;100.00;97673.24;1755095;81;20969;-87
2022/08/23 01:29:56;;;;;;;9.05;5.80;;;;;;;16.72;100.00;97665.03;1766451;81;20965;-88
2022/08/23 01:32:24;;;;;;;6.85;5.17;;;;;;;16.70;100.00;97664.56;1754491;81;21167;-89
2022/08/23 01:34:50;;;;;;;7.85;5.50;;;;;;;16.71;100.00;97673.81;1765945;81;20934;-88
2022/08/23 01:37:17;;;;;;;7.55;5.53;;;;;;;16.74;100.00;97672.34;1740836;81;21413;-89
2022/08/23 01:39:43;;;;;;;11.30;6.12;;;;;;;16.75;100.00;97679.41;1768140;81;21266;-89
2022/08/23 01:42:10;;;;;;;6.10;4.55;;;;;;;16.76;100.00;97678.31;1754387;81;20866;-89
2022/08/23 01:44:35;;;;;;;9.43;5.53;;;;;;;16.76;100.00;97673.64;1764771;81;21137;-87
2022/08/23 01:47:01;;;;;;;8.63;5.58;;;;;;;16.74;100.00;97670.97;1758702;81;20909;-89
2022/08/23 01:49:28;;;;;;;10.75;5.28;;;;;;;16.76;100.00;97674.20;1762001;80;21426;-90
2022/08/23 01:51:54;;;;;;;7.35;5.47;;;;;;;16.75;100.00;97669.30;1755961;81;21080;-87
2022/08/23 01:54:20;;;;;;;9.55;5.78;;;;;;;16.76;100.00;97667.38;1740370;81;20947;-87
2022/08/23 01:56:46;;;;;;;9.15;5.22;;;;;;;16.75;100.00;97674.78;1746287;81;21153;-88
2022/08/23 01:59:12;;;;;;;9.28;5.35;;;;;;;16.74;100.00;97678.61;1740585;80;20993;-88
2022/08/23 02:01:38;;;;;;;8.93;5.08;;;;;;;16.76;100.00;97670.11;1749997;81;20998;-89
2022/08/23 02:04:04;;;;;;;13.38;5.20;;;;;;;16.74;100.00;97666.30;1751078;81;21043;-88
2022/08/23 02:06:30;;;;;;;10.82;5.40;;;;;;;16.74;100.00;97667.67;1746406;81;20975;-88
2022/08/23 02:09:02;;;;;;;10.50;5.62;;;;;;;16.76;100.00;97675.58;1738526;81;21072;-90
2022/08/23 02:11:33;;;;;;;8.55;5.60;;;;;;;16.76;100.00;97681.84;1743204;81;20954;-88
2022/08/23 02:14:02;;;;;;;8.63;4.95;;;;;;;16.78;100.00;97686.42;1737371;81;21533;-89
2022/08/23 02:16:35;;;;;;;6.15;5.00;;;;;;;16.77;100.00;97690.29;1737939;81;20990;-88
2022/08/23 02:19:03;;;;;;;11.18;5.97;;;;;;;16.78;100.00;97686.98;1765810;79;20982;-89
2022/08/23 02:21:32;;;;;;;12.83;6.93;;;;;;;16.80;100.00;97691.56;1762049;81;21121;-87
2022/08/23 02:23:59;;;;;;;18.48;9.05;;;;;;;16.82;100.00;97696.13;1762704;81;20926;-89
2022/08/23 02:26:25;;;;;;;16.45;8.48;;;;;;;16.83;100.00;97692.27;1714519;82;22389;-90
2022/08/23 02:28:52;;;;;;;15.43;8.03;;;;;;;16.83;100.00;97686.22;1765808;79;21394;-90
2022/08/23 02:31:20;;;;;;;11.38;7.03;;;;;;;16.82;100.00;97689.29;1766248;81;20986;-90
2022/08/23 02:33:47;;;;;;;11.63;7.97;;;;;;;16.82;100.00;97694.77;1752251;81;21105;-90
2022/08/23 02:36:14;;;;;;;15.70;6.80;;;;;;;16.80;100.00;97698.41;1763205;81;21258;-90
2022/08/23 02:38:40;;;;;;;6.67;4.83;;;;;;;16.79;100.00;97691.33;1750590;81;20989;-90
2022/08/23 02:41:06;;;;;;;6.95;5.47;;;;;;;16.77;100.00;97693.59;1766025;81;20964;-90
2022/08/23 02:43:32;;;;;;;8.70;5.90;;;;;;;16.73;100.00;97694.80;1734639;81;20875;-89
2022/08/23 02:45:58;;;;;;;8.75;5.42;;;;;;;16.68;100.00;97687.32;1730507;81;21053;-90
2022/08/23 02:48:25;;;;;;;9.50;6.15;;;;;;;16.65;100.00;97686.82;1747120;81;20951;-90
2022/08/23 02:50:51;;;;;;;10.35;7.05;;;;;;;16.66;100.00;97690.36;1743287;81;21018;-89
2022/08/23 02:53:17;;;;;;;10.72;6.47;;;;;;;16.68;100.00;97690.05;1735819;81;20895;-90
2022/08/23 02:55:46;;;;;;;11.75;6.67;;;;;;;16.68;100.00;97689.49;1743705;82;20879;-88
2022/08/23 02:58:12;;;;;;;11.50;6.87;;;;;;;16.69;100.00;97695.23;1747324;81;21069;-90
2022/08/23 03:00:38;;;;;;;10.82;7.05;;;;;;;16.69;100.00;97702.63;1765918;81;20987;-89
2022/08/23 03:03:04;;;;;;;13.38;7.05;;;;;;;16.71;100.00;97700.36;1755324;81;20954;-90
2022/08/23 03:05:31;;;;;;;12.78;6.67;;;;;;;16.72;100.00;97706.07;1766068;81;20962;-91
2022/08/23 03:07:57;;;;;;;8.98;7.22;;;;;;;16.72;100.00;97700.03;1749305;81;21004;-90
2022/08/23 03:10:23;;;;;;;8.78;5.92;;;;;;;16.72;100.00;97698.66;1735696;81;21038;-88
2022/08/23 03:12:49;;;;;;;14.68;7.08;;;;;;;16.68;100.00;97696.90;1758245;79;21089;-89
2022/08/23 03:15:15;;;;;;;9.55;6.58;;;;;;;16.67;100.00;97701.56;1714897;83;21035;-89
2022/08/23 03:17:41;;;;;;;9.48;7.28;;;;;;;16.63;100.00;97701.97;1702876;83;20865;-90
2022/08/23 03:20:09;;;;;;;7.95;6.25;;;;;;;16.63;100.00;97699.23;1693096;83;21605;-90
2022/08/23 03:22:35;;;;;;;12.55;6.10;;;;;;;16.63;100.00;97701.40;1669284;84;22990;-88
2022/08/23 03:25:01;;;;;;;7.62;6.20;;;;;;;16.63;100.00;97705.50;1676728;85;20966;-88
2022/08/23 03:27:27;;;;;;;10.40;6.53;;;;;;;16.62;100.00;97697.06;1687269;84;20908;-90
2022/08/23 03:29:52;;;;;;;12.03;6.85;;;;;;;16.64;100.00;97703.00;1681160;84;21104;-91
2022/08/23 03:32:18;;;;;;;19.12;6.50;;;;;;;16.63;100.00;97708.80;1689068;84;20984;-88
2022/08/23 03:34:44;;;;;;;11.15;6.20;;;;;;;16.59;100.00;97709.23;1697192;84;21086;-89
2022/08/23 03:37:10;;;;;;;12.33;6.85;;;;;;;16.57;100.00;97714.20;1683651;84;20918;-90
2022/08/23 03:39:36;;;;;;;10.50;6.55;;;;;;;16.60;100.00;97719.04;1697975;82;20898;-90
2022/08/23 03:42:03;;;;;;;7.47;5.58;;;;;;;16.61;100.00;97720.08;1692173;84;20992;-89
2022/08/23 03:44:29;;;;;;;7.45;5.47;;;;;;;16.59;100.00;97720.97;1696945;84;21033;-89
2022/08/23 03:46:55;;;;;;;8.20;5.45;;;;;;;16.60;100.00;97721.20;1691941;84;21692;-90
2022/08/23 03:49:21;;;;;;;9.60;6.78;;;;;;;16.58;100.00;97724.04;1675194;84;20875;-88
2022/08/23 03:51:47;;;;;;;14.60;6.62;;;;;;;16.57;100.00;97725.95;1738574;81;20959;-90
2022/08/23 03:54:13;;;;;;;8.48;5.85;;;;;;;16.60;100.00;97724.51;1749785;81;21023;-88
2022/08/23 03:56:51;;;;;;;7.55;5.78;;;;;;;16.61;100.00;97725.55;1758230;81;21581;-89
2022/08/23 03:59:17;;;;;;;7.83;6.12;;;;;;;16.64;100.00;97724.08;1763920;81;21619;-89
2022/08/23 04:01:43;;;;;;;8.03;5.45;;;;;;;16.63;100.00;97719.75;1762577;80;20907;-88
2022/08/23 04:04:09;;;;;;;9.25;5.47;;;;;;;16.66;100.00;97725.92;1737909;81;21011;-90
2022/08/23 04:06:35;;;;;;;8.65;6.65;;;;;;;16.60;100.00;97729.41;1740872;81;20968;-90
2022/08/23 04:09:02;;;;;;;9.08;6.25;;;;;;;16.62;100.00;97726.34;1733815;82;20962;-90
2022/08/23 04:11:28;;;;;;;7.97;5.70;;;;;;;16.65;100.00;97724.31;1738826;81;21017;-89
2022/08/23 04:13:54;;;;;;;10.75;6.12;;;;;;;16.67;100.00;97727.55;1747294;80;21080;-87
2022/08/23 04:16:21;;;;;;;9.38;5.97;;;;;;;16.71;100.00;97723.05;1765885;81;21351;-90
2022/08/23 04:18:47;;;;;;;10.80;6.17;;;;;;;16.75;100.00;97722.66;1752076;80;20938;-88
2022/08/23 04:21:17;;;;;;;7.25;6.10;;;;;;;16.74;100.00;97724.33;1763323;81;20982;-88
2022/08/23 04:23:43;;;;;;;7.85;5.72;;;;;;;16.70;100.00;97725.55;1750399;81;21071;-88
2022/08/23 04:26:09;;;;;;;10.63;7.08;;;;;;;16.72;100.00;97727.95;1742255;81;20939;-90
2022/08/23 04:28:35;;;;;;;16.55;6.65;;;;;;;16.74;100.00;97736.63;1729420;81;21019;-88
2022/08/23 04:31:02;;;;;;;10.80;6.95;;;;;;;16.76;100.00;97727.56;1740643;81;21037;-90
2022/08/23 04:33:30;;;;;;;9.40;7.15;;;;;;;16.75;100.00;97729.49;1738475;81;20967;-89
2022/08/23 04:35:58;;;;;;;12.75;7.67;;;;;;;16.76;100.00;97735.20;1741457;81;21600;-90
2022/08/23 04:38:24;;;;;;;9.90;6.55;;;;;;;16.79;100.00;97729.06;1746022;79;21429;-88
2022/08/23 04:43:34;;;;;;;11.03;7.30;;;;;;;16.84;100.00;97728.89;1755014;80;20963;-88
2022/08/23 04:46:00;;;;;;;10.48;7.35;;;;;;;16.85;100.00;97731.06;1765765;80;20969;-90
2022/08/23 04:48:26;;;;;;;10.78;7.25;;;;;;;16.83;100.00;97731.94;1755017;80;20993;-89
2022/08/23 04:50:52;;;;;;;9.20;6.87;;;;;;;16.82;100.00;97733.07;1765826;80;20982;-88
2022/08/23 04:53:18;;;;;;;8.73;6.40;;;;;;;16.85;100.00;97737.34;1754126;80;20855;-90
2022/08/23 04:55:44;;;;;;;9.30;6.17;;;;;;;16.84;100.00;97738.48;1741992;80;21483;-88
2022/08/23 04:58:10;;;;;;;13.58;6.65;;;;;;;16.87;100.00;97747.39;1753548;81;21584;-89
2022/08/23 05:00:36;;;;;;;10.03;6.42;;;;;;;16.83;100.00;97749.16;1709146;81;21581;-89
2022/08/23 05:03:01;;;;;;;9.88;6.67;;;;;;;16.87;100.00;97750.13;1743298;81;21528;-89
2022/08/23 05:05:27;;;;;;;9.15;6.03;;;;;;;16.89;100.00;97754.70;1762315;80;20986;-91
2022/08/23 05:07:54;;;;;;;6.75;6.03;;;;;;;16.94;100.00;97754.30;1741766;81;20938;-90
2022/08/23 05:10:20;;;;;;;9.08;6.60;;;;;;;16.94;100.00;97752.36;1738574;81;20911;-88
2022/08/23 05:12:47;;;;;;;9.35;5.97;;;;;;;16.96;100.00;97759.67;1760226;79;21717;-88
2022/08/23 05:15:13;;;;;;;8.90;6.12;;;;;;;17.01;100.00;97762.81;1762938;80;21044;-88
2022/08/23 05:17:39;;;;;;;8.40;6.35;;;;;;;17.04;100.00;97763.52;1737794;81;20902;-90
2022/08/23 05:20:07;;;;;;;9.28;5.72;;;;;;;17.03;100.00;97757.80;1740609;81;20939;-89
2022/08/23 05:22:34;;;;;;;8.85;5.37;;;;;;;17.08;100.00;97760.34;1740662;81;21078;-88
2022/08/23 05:25:00;;;;;;;7.58;6.17;;;;;;;17.10;100.00;97773.16;1758549;81;21749;-89
2022/08/23 05:27:26;;;;;;;9.03;4.65;;;;;;;17.10;100.00;97769.05;1755904;81;20877;-88
2022/08/23 05:29:53;;;;;;;5.97;5.15;;;;;;;17.14;100.00;97772.72;1740462;81;21074;-88
2022/08/23 05:32:20;;;;;;;9.55;5.97;;;;;;;17.12;100.00;97779.91;1736797;81;20994;-91
2022/08/23 05:34:46;;;;;;;8.48;5.75;;;;;;;17.14;100.00;97773.53;1741392;80;21423;-90
2022/08/23 05:37:12;;;;;;;8.80;6.58;;;;;;;17.23;100.00;97783.08;1735060;81;21297;-89
2022/08/23 05:39:38;;;;;;;13.00;6.20;;;;;;;17.33;100.00;97781.33;1760576;80;21009;-90
2022/08/23 05:42:07;;;;;;;8.70;5.42;;;;;;;17.34;100.00;97785.67;1753418;81;21018;-88
2022/08/23 05:44:33;;;;;;;7.22;6.17;;;;;;;17.45;100.00;97786.92;1726476;81;21071;-88
2022/08/23 05:46:59;;;;;;;8.23;4.92;;;;;;;17.47;100.00;97792.88;1738102;81;20930;-90
2022/08/23 05:49:25;;;;;;;6.85;5.78;;;;;;;17.47;100.00;97795.61;1752232;81;21318;-90
2022/08/23 05:51:50;;;;;;;13.35;6.83;;;;;;;17.43;100.00;97800.70;1732274;81;20938;-89
2022/08/23 05:54:16;;;;;;;10.43;8.13;;;;;;;17.42;100.00;97795.78;1733496;81;21627;-88
2022/08/23 05:56:43;;;;;;;7.67;4.83;;;;;;;17.44;100.00;97802.33;1746652;81;38830;-88
2022/08/23 05:59:13;;;;;;;7.17;5.42;;;;;;;17.48;100.00;97798.58;1741763;81;20907;-88
2022/08/23 06:01:40;;;;;;;8.18;4.62;;;;;;;17.54;100.00;97800.58;1742148;81;21456;-89
2022/08/23 06:04:07;;;;;;;6.75;4.83;;;;;;;17.59;100.00;97801.74;1749419;81;20950;-88
2022/08/23 06:06:33;;;;;;;6.22;4.33;;;;;;;17.61;100.00;97809.66;1738108;81;21045;-88
2022/08/23 06:09:00;;;;;;;5.00;3.98;;;;;;;17.65;100.00;97806.48;1755300;81;21009;-90
2022/08/23 06:11:28;;;;;;;6.78;4.90;;;;;;;17.69;100.00;97806.07;1742461;81;21007;-90
2022/08/23 06:13:59;;;;;;;9.18;5.80;;;;;;;17.68;100.00;97807.17;1744218;79;21128;-90
2022/08/23 06:16:30;;;;;;;8.48;4.30;;;;;;;17.72;100.00;97809.53;1757364;81;21497;-90
2022/08/23 06:18:57;;;;;;;10.23;5.28;;;;;;;17.73;100.00;97821.53;1755683;81;20983;-89
2022/08/23 06:21:24;;;;;;;8.35;5.78;;;;;;;17.69;100.00;97823.88;1755916;80;21092;-88
2022/08/23 06:23:51;;;;;;;10.15;6.30;;;;;;;17.59;100.00;97833.25;1757078;81;21048;-86
2022/08/23 06:26:20;;;;;;;10.30;6.10;;;;;;;17.56;100.00;97827.64;1760312;80;21819;-88
2022/08/23 06:28:49;;;;;;;11.15;5.95;;;;;;;17.55;100.00;97830.14;1759071;81;20952;-91
2022/08/23 06:31:15;;;;;;;9.15;5.55;;;;;;;17.54;100.00;97834.83;1714345;82;21015;-90
2022/08/23 06:33:43;;;;;;;7.72;5.87;;;;;;;17.52;100.00;97841.74;1748087;79;21044;-89
2022/08/23 06:36:16;;;;;;;6.87;5.47;;;;;;;17.53;100.00;97837.89;1746195;80;21571;-89
2022/08/23 06:38:43;;;;;;;9.08;5.87;;;;;;;17.55;100.00;97837.80;1748550;81;21033;-91
2022/08/23 06:41:11;;;;;;;6.70;5.17;;;;;;;17.63;100.00;97839.69;1753132;81;21041;-90
2022/08/23 06:43:37;;;;;;;7.12;5.45;;;;;;;17.72;100.00;97830.09;1754172;80;21029;-91
2022/08/23 06:46:17;;;;;;;8.48;5.42;;;;;;;17.79;100.00;97831.75;1755421;80;21040;-89
2022/08/23 06:48:43;;;;;;;12.33;6.90;;;;;;;17.90;100.00;97829.42;1756871;81;21096;-88
2022/08/23 06:51:13;;;;;;;6.95;5.42;;;;;;;18.08;100.00;97833.65;1753450;80;21116;-89
2022/08/23 06:53:38;;;;;;;11.78;5.40;;;;;;;18.24;100.00;97827.81;1752465;81;20989;-90
2022/08/23 06:56:05;;;;;;;17.90;8.63;;;;;;;18.26;100.00;97820.05;1754261;81;21686;-88
2022/08/23 06:58:31;;;;;;;7.08;5.70;;;;;;;18.36;100.00;97829.00;1758637;81;21024;-88
2022/08/23 07:01:14;;;;;;;8.05;4.70;;;;;;;18.50;100.00;97828.17;1756628;79;20977;-88
2022/08/23 07:03:40;;;;;;;16.90;5.05;;;;;;;18.58;100.00;97830.84;1731867;81;21162;-89
2022/08/23 07:06:06;;;;;;;5.35;4.33;;;;;;;18.77;100.00;97835.86;1738693;81;20867;-88
2022/08/23 07:08:32;;;;;;;6.58;4.47;;;;;;;18.93;100.00;97831.11;1739357;81;21009;-90
2022/08/23 07:10:58;;;;;;;8.48;4.47;;;;;;;18.99;100.00;97838.80;1739549;81;21069;-88
2022/08/23 07:13:24;;;;;;;9.98;5.20;;;;;;;19.09;100.00;97832.88;1748259;81;21167;-88
2022/08/23 07:15:50;;;;;;;8.55;5.05;;;;;;;19.21;100.00;97838.16;1752657;81;20991;-88
2022/08/23 07:18:16;;;;;;;6.62;4.47;;;;;;;19.39;100.00;97837.61;1747723;80;20988;-90
2022/08/23 07:20:42;;;;;;;5.25;3.85;;;;;;;19.54;100.00;97840.27;1708849;82;20932;-89
2022/08/23 07:23:08;;;;;;;5.70;4.30;;;;;;;19.72;100.00;97839.50;1742912;79;21339;-90
2022/08/23 07:25:34;;;;;;;6.85;4.25;;;;;;;19.90;100.00;97848.30;1744206;81;21363;-90
2022/08/23 07:28:00;;;;;;;9.63;5.58;;;;;;;20.03;100.00;97850.48;1753809;81;21129;-88
2022/08/23 07:30:26;;;;;;;8.80;5.85;;;;;;;19.94;100.00;97848.66;1743554;81;21068;-88
2022/08/23 07:32:52;;;;;;;6.10;3.92;;;;;;;20.00;100.00;97856.11;1748852;81;21124;-90
2022/08/23 07:35:18;;;;;;;5.37;4.25;;;;;;;20.14;100.00;97852.98;1750592;80;20937;-89
2022/08/23 07:37:44;;;;;;;7.12;5.22;;;;;;;20.31;100.00;97854.67;1729019;81;21036;-88
2022/08/23 07:40:11;;;;;;;6.80;4.90;;;;;;;21.33;100.00;97854.66;1751603;80;21299;-90
2022/08/23 07:42:37;;;;;;;9.93;4.90;;;;;;;22.23;100.00;97849.59;1749109;80;21406;-88
2022/08/23 07:45:03;;;;;;;7.65;4.15;;;;;;;22.84;100.00;97851.45;1753819;80;21398;-88
2022/08/23 07:47:31;;;;;;;7.72;5.03;;;;;;;23.18;98.50;97856.10;1753991;81;21433;-91
2022/08/23 07:49:57;;;;;;;5.87;5.27;;;;;;;23.03;90.09;97856.98;1746807;81;21021;-89
2022/08/23 07:52:23;;;;;;;8.30;5.25;;;;;;;22.96;93.04;97853.50;1735790;80;21263;-90
2022/08/23 07:54:49;;;;;;;9.10;5.05;;;;;;;22.79;94.45;97857.48;1753084;81;21430;-89
2022/08/23 07:57:16;;;;;;;5.97;5.17;;;;;;;22.86;92.89;97857.44;1751993;80;22128;-90
2022/08/23 07:59:42;;;;;;;8.00;5.45;;;;;;;23.19;95.35;97863.80;1757918;81;21041;-88
2022/08/23 08:02:07;;;;;;;7.17;5.55;;;;;;;23.52;91.42;97861.25;1750431;81;20918;-89
2022/08/23 08:04:33;;;;;;;6.83;5.25;;;;;;;23.68;87.40;97863.93;1750483;80;21082;-89
2022/08/23 08:07:00;;;;;;;7.55;5.47;;;;;;;24.98;91.83;97856.50;1743721;81;20870;-89
2022/08/23 08:09:26;;;;;;;8.88;5.67;;;;;;;25.82;85.31;97857.77;1738822;81;21168;-90
2022/08/23 08:11:52;;;;;;;5.95;4.50;;;;;;;25.45;82.97;97863.93;1745110;79;20823;-89
2022/08/23 08:14:18;;;;;;;8.90;5.40;;;;;;;25.60;83.39;97845.66;1752063;79;20977;-87
2022/08/23 08:16:46;;;;;;;5.70;4.40;;;;;;;26.45;85.01;97861.99;1741647;81;21064;-89
2022/08/23 08:19:14;;;;;;;5.90;4.70;;;;;;;27.57;76.11;97862.00;1747582;81;21480;-90
2022/08/23 08:21:41;;;;;;;7.20;5.10;;;;;;;26.67;78.08;97859.54;1750589;81;21089;-89
2022/08/23 08:24:09;;;;;;;5.67;4.85;;;;;;;25.86;81.51;97857.20;1752381;81;21069;-88
2022/08/23 08:26:35;;;;;;;6.15;4.70;;;;;;;25.35;78.67;97865.42;1751247;80;21072;-89
2022/08/23 08:29:01;;;;;;;5.28;4.70;;;;;;;24.80;78.74;97873.50;1747078;81;21161;-88
2022/08/23 08:31:27;;;;;;;7.17;5.05;;;;;;;24.38;78.93;97879.27;1749750;81;20993;-89
2022/08/23 08:33:53;;;;;;;6.17;4.80;;;;;;;23.67;82.70;97878.94;1749362;81;21171;-90
2022/08/23 08:36:45;;;;;;;11.78;5.30;;;;;;;23.49;83.65;97871.66;1744522;79;20920;-89
2022/08/23 08:39:14;;;;;;;10.95;5.67;;;;;;;23.43;85.67;97865.44;1754759;81;21123;-90
2022/08/23 08:42:21;;;;;;;6.40;5.12;;;;;;;23.45;85.74;97865.86;1754766;81;21299;-88
2022/08/23 08:45:07;;;;;;;7.67;5.33;;;;;;;23.39;87.03;97865.94;1724341;81;21081;-89
2022/08/23 08:47:59;;;;;;;5.15;4.50;;;;;;;23.52;87.00;97867.37;1730723;81;21463;-89
2022/08/23 08:50:36;;;;;;;11.00;5.10;;;;;;;23.71;85.06;97861.00;1749722;80;21108;-88
2022/08/23 08:53:18;;;;;;;9.93;5.72;;;;;;;24.14;85.42;97866.63;1754198;79;21049;-89
2022/08/23 08:55:48;;;;;;;12.68;5.83;;;;;;;24.28;84.37;97872.38;1749428;80;21114;-89
2022/08/23 08:58:25;;;;;;;6.25;4.62;;;;;;;24.46;83.13;97871.27;1749653;80;21089;-89
2022/08/23 09:00:51;;;;;;;9.25;4.25;;;;;;;24.46;82.46;97872.07;1748206;80;21077;-89
2022/08/23 09:03:21;;;;;;;10.10;5.08;;;;;;;24.22;82.98;97878.02;1744963;79;20891;-89
2022/08/23 09:06:00;;;;;;;4.78;4.20;;;;;;;24.01;82.23;97882.63;1754463;79;20973;-88
2022/08/23 09:09:13;;;;;;;8.05;4.17;;;;;;;23.87;82.53;97874.91;1732815;81;21587;-89
2022/08/23 09:11:51;;;;;;;6.05;4.55;;;;;;;23.60;83.32;97878.80;1750238;81;21049;-90
2022/08/23 09:14:55;;;;;;;5.30;4.40;;;;;;;23.45;82.89;97874.95;1740558;81;21037;-88
2022/08/23 09:17:30;;;;;;;5.83;3.95;;;;;;;23.73;82.61;97880.78;1738294;81;20986;-89
2022/08/23 09:19:57;;;;;;;6.12;3.90;;;;;;;23.96;82.59;97882.16;1745222;81;21229;-90
2022/08/23 09:22:39;;;;;;;6.78;4.15;;;;;;;24.09;81.70;97882.15;1722784;81;21111;-89
2022/08/23 09:25:10;;;;;;;4.87;3.67;;;;;;;24.07;80.47;97878.97;1748985;81;20982;-89
2022/08/23 09:27:38;;;;;;;4.10;3.70;;;;;;;24.26;81.63;97873.91;1753423;80;21049;-87
2022/08/23 09:30:05;;;;;;;8.85;4.83;;;;;;;24.34;81.07;97882.56;1753224;81;21101;-88
2022/08/23 09:32:36;;;;;;;4.95;4.33;;;;;;;24.66;81.70;97883.00;1738059;81;20961;-90
2022/08/23 09:35:16;;;;;;;4.92;4.15;;;;;;;24.90;80.80;97885.89;1746811;81;21123;-90
2022/08/23 09:37:56;;;;;;;6.80;4.25;;;;;;;24.92;78.99;97887.09;1741933;81;21045;-91
2022/08/23 09:40:40;;;;;;;4.25;3.85;;;;;;;24.98;78.13;97891.14;1744639;81;21632;-90
2022/08/23 09:43:19;;;;;;;5.55;4.53;;;;;;;24.88;78.16;97892.41;1754548;81;20970;-92
2022/08/23 09:45:54;;;;;;;6.30;3.70;;;;;;;24.83;76.89;97889.36;1739667;80;21084;-92
2022/08/23 09:48:42;;;;;;;8.75;4.30;;;;;;;24.92;76.34;97887.09;1749957;81;21677;-91
2022/08/23 09:51:25;;;;;;;5.08;4.15;;;;;;;25.03;75.21;97890.81;1750340;81;21029;-90
2022/08/23 09:54:12;;;;;;;6.53;4.37;;;;;;;25.18;74.55;97885.45;1723082;82;21044;-90
2022/08/23 09:56:41;;;;;;;6.20;4.17;;;;;;;25.50;75.43;97887.17;1690112;81;20986;-90
2022/08/23 09:59:28;;;;;;;5.72;4.42;;;;;;;25.65;75.72;97892.28;1679001;84;21091;-91
2022/08/23 10:01:57;;;;;;;5.72;4.03;;;;;;;25.66;76.49;97886.94;1679603;84;21713;-90
2022/08/23 10:04:38;;;;;;;9.45;4.70;;;;;;;25.52;74.19;97888.38;1745933;81;21008;-91
2022/08/23 10:07:26;;;;;;;4.62;3.85;;;;;;;24.87;75.43;97897.15;1735481;80;21160;-91
2022/08/23 10:09:53;;;;;;;4.47;4.05;;;;;;;24.87;76.26;97895.77;1750029;81;20982;-90
2022/08/23 10:12:19;;;;;;;4.58;3.87;;;;;;;24.78;77.37;97904.13;1757274;79;21001;-90
2022/08/23 10:14:45;;;;;;;5.12;4.20;;;;;;;24.63;77.54;97909.49;1764400;80;21104;-89
2022/08/23 10:17:33;;;;;;;4.83;4.37;;;;;;;24.86;77.90;97902.45;1750412;81;20970;-90
2022/08/23 10:20:28;;;;;;;5.40;4.28;;;;;;;25.00;76.92;97903.23;1749081;81;27370;-91
2022/08/23 10:23:11;;;;;;;6.28;4.62;;;;;;;25.31;77.19;97895.91;1744534;81;21056;-90
2022/08/23 10:25:51;;;;;;;5.75;4.15;;;;;;;25.30;75.74;97901.84;1748198;81;21072;-90
2022/08/23 10:32:12;;;;;;;6.00;3.60;;;;;;;24.85;74.26;97901.45;1747681;81;21108;-89
2022/08/23 10:34:59;;;;;;;7.45;4.53;;;;;;;25.07;76.24;97903.34;1753187;80;21101;-90
2022/08/23 10:37:43;;;;;;;5.67;4.37;;;;;;;24.91;75.97;97903.52;1759234;80;20970;-90
2022/08/23 10:40:30;;;;;;;7.65;4.70;;;;;;;24.85;74.56;97905.02;1758970;80;21081;-91
2022/08/23 10:43:13;;;;;;;6.33;4.60;;;;;;;24.62;76.05;97909.28;1752635;80;21111;-90
2022/08/23 10:45:41;;;;;;;9.13;3.98;;;;;;;24.44;75.23;97905.44;1750542;81;21078;-91
2022/08/23 10:48:30;;;;;;;6.70;3.95;;;;;;;24.49;76.94;97907.90;1754978;81;21008;-90
2022/08/23 10:51:03;;;;;;;4.95;4.22;;;;;;;24.53;75.54;97907.97;1750688;81;21113;-90
2022/08/23 10:53:46;;;;;;;7.42;6.08;;;;;;;24.46;77.08;97907.27;1750154;81;21526;-89
2022/08/23 10:56:19;;;;;;;5.50;4.58;;;;;;;24.43;77.25;97903.26;1745050;81;21298;-90
2022/08/23 10:58:55;;;;;;;6.60;3.83;;;;;;;24.57;77.28;97904.65;1711905;82;21046;-91
2022/08/23 11:01:24;;;;;;;5.95;4.87;;;;;;;24.71;77.19;97905.64;1761766;79;20973;-90
2022/08/23 11:04:10;;;;;;;6.42;4.95;;;;;;;24.84;77.15;97902.63;1722082;81;20977;-90
2022/08/23 11:06:43;;;;;;;5.58;3.90;;;;;;;24.96;76.82;97907.36;1747361;80;21512;-91
2022/08/23 11:09:23;;;;;;;5.37;4.70;;;;;;;25.02;75.39;97905.03;1741884;81;21637;-91
2022/08/23 11:12:15;;;;;;;6.70;4.05;;;;;;;25.07;75.94;97901.17;1726565;81;21483;-90
2022/08/23 11:15:15;;;;;;;5.55;4.47;;;;;;;24.88;73.16;97902.90;1743411;81;21065;-90
2022/08/23 11:17:54;;;;;;;6.83;3.98;;;;;;;24.87;75.02;97901.89;1751327;79;21024;-90
2022/08/23 11:20:52;;;;;;;8.58;4.95;;;;;;;24.93;75.71;97902.55;1746484;81;21081;-91
2022/08/23 11:23:52;;;;;;;7.60;4.40;;;;;;;24.90;76.08;97906.08;1759262;79;21233;-91
2022/08/23 11:26:35;;;;;;;6.08;4.00;;;;;;;24.94;75.62;97903.34;1753279;81;21017;-92
2022/08/23 11:29:24;;;;;;;6.85;5.08;;;;;;;24.91;74.13;97906.88;1746044;81;21031;-91
2022/08/23 11:32:14;;;;;;;5.95;5.03;;;;;;;25.09;75.98;97907.92;1744907;80;21041;-88
2022/08/23 11:34:54;;;;;;;7.83;5.15;;;;;;;25.02;76.20;97913.34;1750936;81;21905;-88
2022/08/23 11:37:25;;;;;;;6.90;5.05;;;;;;;25.16;75.50;97919.09;1752636;81;21164;-88
2022/08/23 11:40:03;;;;;;;7.85;5.12;;;;;;;25.34;76.56;97912.95;1749650;81;21033;-89
2022/08/23 11:42:40;;;;;;;9.23;5.62;;;;;;;25.17;75.29;97919.89;1754974;81;20989;-88
2022/08/23 11:45:40;;;;;;;6.50;5.37;;;;;;;24.82;75.92;97919.63;1750683;80;21217;-89
2022/08/23 11:48:36;;;;;;;7.50;5.50;;;;;;;24.57;76.72;97921.27;1664617;84;21078;-89
2022/08/23 11:51:19;;;;;;;10.55;6.47;;;;;;;24.52;77.08;97919.61;1752449;80;21555;-88
2022/08/23 11:54:09;;;;;;;9.85;5.65;;;;;;;24.69;77.98;97921.03;1747186;81;21048;-89
2022/08/23 11:57:08;;;;;;;8.55;6.70;;;;;;;24.75;78.00;97918.95;1746771;81;20966;-91